sensor_id;sensor_type;location;lat;lon;timestamp;P1;durP1;ratioP1;P2;durP2;ratioP2
72235;SDS011;60146;52.498;13.462;2024-01-11T00:02:16;10.87;;;4.23;;
72235;SDS011;60146;52.498;13.462;2024-01-11T00:04:41;12.77;;;4.10;;
72235;SDS011;60146;52.498;13.462;2024-01-11T00:07:08;10.82;;;4.07;;
72235;SDS011;60146;52.498;13.462;2024-01-11T00:09:38;12.63;;;4.07;;
72235;SDS011;60146;52.498;13.462;2024-01-11T00:12:04;17.42;;;4.22;;
72235;SDS011;60146;52.498;13.462;2024-01-11T00:14:30;16.35;;;4.72;;
72235;SDS011;60146;52.498;13.462;2024-01-11T00:16:56;16.30;;;4.10;;
72235;SDS011;60146;52.498;13.462;2024-01-11T00:19:21;14.87;;;4.70;;
72235;SDS011;60146;52.498;13.462;2024-01-11T00:21:46;11.30;;;3.63;;
72235;SDS011;60146;52.498;13.462;2024-01-11T00:24:12;15.00;;;5.03;;
72235;SDS011;60146;52.498;13.462;2024-01-11T00:26:37;11.03;;;4.57;;
72235;SDS011;60146;52.498;13.462;2024-01-11T00:29:03;11.30;;;4.03;;
72235;SDS011;60146;52.498;13.462;2024-01-11T00:31:28;13.00;;;4.13;;
72235;SDS011;60146;52.498;13.462;2024-01-11T00:33:53;12.00;;;4.43;;
72235;SDS011;60146;52.498;13.462;2024-01-11T00:36:19;12.77;;;4.10;;
72235;SDS011;60146;52.498;13.462;2024-01-11T00:38:47;15.63;;;4.45;;
72235;SDS011;60146;52.498;13.462;2024-01-11T00:41:12;11.60;;;4.77;;
72235;SDS011;60146;52.498;13.462;2024-01-11T00:43:38;15.10;;;4.83;;
72235;SDS011;60146;52.498;13.462;2024-01-11T00:46:03;14.57;;;4.70;;
72235;SDS011;60146;52.498;13.462;2024-01-11T00:48:28;14.10;;;4.30;;
72235;SDS011;60146;52.498;13.462;2024-01-11T00:50:54;13.90;;;4.20;;
72235;SDS011;60146;52.498;13.462;2024-01-11T00:53:19;11.60;;;4.37;;
72235;SDS011;60146;52.498;13.462;2024-01-11T00:55:45;13.27;;;4.13;;
72235;SDS011;60146;52.498;13.462;2024-01-11T00:58:10;11.30;;;3.40;;
72235;SDS011;60146;52.498;13.462;2024-01-11T01:00:36;9.43;;;3.60;;
72235;SDS011;60146;52.498;13.462;2024-01-11T01:03:01;10.03;;;3.23;;
72235;SDS011;60146;52.498;13.462;2024-01-11T01:05:27;8.87;;;3.10;;
72235;SDS011;60146;52.498;13.462;2024-01-11T01:07:52;6.97;;;2.43;;
72235;SDS011;60146;52.498;13.462;2024-01-11T01:10:18;9.17;;;3.33;;
72235;SDS011;60146;52.498;13.462;2024-01-11T01:12:43;10.37;;;3.00;;
72235;SDS011;60146;52.498;13.462;2024-01-11T01:15:08;10.37;;;3.37;;
72235;SDS011;60146;52.498;13.462;2024-01-11T01:17:34;9.57;;;3.70;;
72235;SDS011;60146;52.498;13.462;2024-01-11T01:19:59;15.93;;;4.53;;
72235;SDS011;60146;52.498;13.462;2024-01-11T01:22:24;10.17;;;4.33;;
72235;SDS011;60146;52.498;13.462;2024-01-11T01:24:50;13.27;;;4.23;;
72235;SDS011;60146;52.498;13.462;2024-01-11T01:27:16;8.60;;;3.80;;
72235;SDS011;60146;52.498;13.462;2024-01-11T01:29:41;11.57;;;3.75;;
72235;SDS011;60146;52.498;13.462;2024-01-11T01:32:06;10.60;;;4.20;;
72235;SDS011;60146;52.498;13.462;2024-01-11T01:34:32;11.93;;;3.87;;
72235;SDS011;60146;52.498;13.462;2024-01-11T01:36:57;12.10;;;4.43;;
72235;SDS011;60146;52.498;13.462;2024-01-11T01:39:22;10.83;;;4.20;;
72235;SDS011;60146;52.498;13.462;2024-01-11T01:41:48;12.70;;;4.30;;
72235;SDS011;60146;52.498;13.462;2024-01-11T01:44:13;8.70;;;3.80;;
72235;SDS011;60146;52.498;13.462;2024-01-11T01:46:38;11.83;;;4.10;;
72235;SDS011;60146;52.498;13.462;2024-01-11T01:49:04;11.27;;;4.00;;
72235;SDS011;60146;52.498;13.462;2024-01-11T01:51:30;14.10;;;3.55;;
72235;SDS011;60146;52.498;13.462;2024-01-11T01:53:57;13.05;;;4.00;;
72235;SDS011;60146;52.498;13.462;2024-01-11T01:56:24;14.38;;;3.90;;
72235;SDS011;60146;52.498;13.462;2024-01-11T01:58:51;10.30;;;3.20;;
72235;SDS011;60146;52.498;13.462;2024-01-11T02:01:18;11.88;;;3.80;;
72235;SDS011;60146;52.498;13.462;2024-01-11T02:03:45;10.23;;;3.28;;
72235;SDS011;60146;52.498;13.462;2024-01-11T02:06:14;11.48;;;3.42;;
72235;SDS011;60146;52.498;13.462;2024-01-11T02:08:40;10.00;;;3.40;;
72235;SDS011;60146;52.498;13.462;2024-01-11T02:11:08;11.90;;;3.60;;
72235;SDS011;60146;52.498;13.462;2024-01-11T02:13:35;8.85;;;3.63;;
72235;SDS011;60146;52.498;13.462;2024-01-11T02:16:01;12.90;;;3.57;;
72235;SDS011;60146;52.498;13.462;2024-01-11T02:18:26;13.93;;;3.30;;
72235;SDS011;60146;52.498;13.462;2024-01-11T02:20:52;13.57;;;3.27;;
72235;SDS011;60146;52.498;13.462;2024-01-11T02:23:17;11.83;;;3.63;;
72235;SDS011;60146;52.498;13.462;2024-01-11T02:25:46;14.57;;;3.97;;
72235;SDS011;60146;52.498;13.462;2024-01-11T02:28:11;10.70;;;3.13;;
72235;SDS011;60146;52.498;13.462;2024-01-11T02:30:37;13.07;;;3.27;;
72235;SDS011;60146;52.498;13.462;2024-01-11T02:33:03;14.93;;;3.67;;
72235;SDS011;60146;52.498;13.462;2024-01-11T02:35:29;9.38;;;3.55;;
72235;SDS011;60146;52.498;13.462;2024-01-11T02:37:56;13.93;;;3.72;;
72235;SDS011;60146;52.498;13.462;2024-01-11T02:40:22;13.00;;;3.70;;
72235;SDS011;60146;52.498;13.462;2024-01-11T02:42:48;12.67;;;4.00;;
72235;SDS011;60146;52.498;13.462;2024-01-11T02:45:13;13.10;;;3.63;;
72235;SDS011;60146;52.498;13.462;2024-01-11T02:47:39;8.73;;;3.10;;
72235;SDS011;60146;52.498;13.462;2024-01-11T02:50:05;11.37;;;3.93;;
72235;SDS011;60146;52.498;13.462;2024-01-11T02:52:32;12.10;;;3.53;;
72235;SDS011;60146;52.498;13.462;2024-01-11T02:54:57;14.27;;;4.23;;
72235;SDS011;60146;52.498;13.462;2024-01-11T02:57:23;13.53;;;3.93;;
72235;SDS011;60146;52.498;13.462;2024-01-11T02:59:49;8.47;;;3.17;;
72235;SDS011;60146;52.498;13.462;2024-01-11T03:02:14;12.95;;;3.72;;
72235;SDS011;60146;52.498;13.462;2024-01-11T03:04:40;15.33;;;4.50;;
72235;SDS011;60146;52.498;13.462;2024-01-11T03:07:05;13.47;;;3.77;;
72235;SDS011;60146;52.498;13.462;2024-01-11T03:09:31;11.30;;;3.83;;
72235;SDS011;60146;52.498;13.462;2024-01-11T03:11:56;15.23;;;3.87;;
72235;SDS011;60146;52.498;13.462;2024-01-11T03:14:21;14.63;;;3.57;;
72235;SDS011;60146;52.498;13.462;2024-01-11T03:16:47;7.83;;;3.10;;
72235;SDS011;60146;52.498;13.462;2024-01-11T03:19:12;11.27;;;3.47;;
72235;SDS011;60146;52.498;13.462;2024-01-11T03:21:44;12.93;;;3.83;;
72235;SDS011;60146;52.498;13.462;2024-01-11T03:24:10;9.15;;;2.70;;
72235;SDS011;60146;52.498;13.462;2024-01-11T03:26:36;12.50;;;3.03;;
72235;SDS011;60146;52.498;13.462;2024-01-11T03:29:01;14.77;;;3.90;;
72235;SDS011;60146;52.498;13.462;2024-01-11T03:31:27;10.17;;;3.40;;
72235;SDS011;60146;52.498;13.462;2024-01-11T03:33:52;9.87;;;2.67;;
72235;SDS011;60146;52.498;13.462;2024-01-11T03:36:17;10.23;;;3.30;;
72235;SDS011;60146;52.498;13.462;2024-01-11T03:38:43;12.53;;;3.50;;
72235;SDS011;60146;52.498;13.462;2024-01-11T03:41:08;10.83;;;3.33;;
72235;SDS011;60146;52.498;13.462;2024-01-11T03:43:37;14.30;;;3.67;;
72235;SDS011;60146;52.498;13.462;2024-01-11T03:46:03;12.97;;;3.50;;
72235;SDS011;60146;52.498;13.462;2024-01-11T03:48:28;10.60;;;3.80;;
72235;SDS011;60146;52.498;13.462;2024-01-11T03:50:54;11.77;;;3.70;;
72235;SDS011;60146;52.498;13.462;2024-01-11T03:53:19;9.80;;;3.17;;
72235;SDS011;60146;52.498;13.462;2024-01-11T03:55:45;12.77;;;3.80;;
72235;SDS011;60146;52.498;13.462;2024-01-11T03:58:10;16.13;;;3.87;;
72235;SDS011;60146;52.498;13.462;2024-01-11T04:00:36;10.37;;;2.90;;
72235;SDS011;60146;52.498;13.462;2024-01-11T04:03:01;13.53;;;3.07;;
72235;SDS011;60146;52.498;13.462;2024-01-11T04:05:27;11.47;;;3.43;;
72235;SDS011;60146;52.498;13.462;2024-01-11T04:07:52;12.90;;;3.67;;
72235;SDS011;60146;52.498;13.462;2024-01-11T04:10:17;11.50;;;3.20;;
72235;SDS011;60146;52.498;13.462;2024-01-11T04:12:43;10.30;;;3.07;;
72235;SDS011;60146;52.498;13.462;2024-01-11T04:15:08;9.10;;;2.90;;
72235;SDS011;60146;52.498;13.462;2024-01-11T04:17:38;12.32;;;3.30;;
72235;SDS011;60146;52.498;13.462;2024-01-11T04:20:03;11.77;;;3.58;;
72235;SDS011;60146;52.498;13.462;2024-01-11T04:22:29;11.95;;;3.40;;
72235;SDS011;60146;52.498;13.462;2024-01-11T04:24:55;9.97;;;2.80;;
72235;SDS011;60146;52.498;13.462;2024-01-11T04:27:20;11.90;;;2.97;;
72235;SDS011;60146;52.498;13.462;2024-01-11T04:29:45;14.07;;;4.00;;
72235;SDS011;60146;52.498;13.462;2024-01-11T04:32:11;13.90;;;3.53;;
72235;SDS011;60146;52.498;13.462;2024-01-11T04:34:36;10.37;;;3.40;;
72235;SDS011;60146;52.498;13.462;2024-01-11T04:37:02;13.53;;;3.47;;
72235;SDS011;60146;52.498;13.462;2024-01-11T04:39:27;12.43;;;3.57;;
72235;SDS011;60146;52.498;13.462;2024-01-11T04:41:52;15.33;;;3.57;;
72235;SDS011;60146;52.498;13.462;2024-01-11T04:44:18;11.80;;;3.13;;
72235;SDS011;60146;52.498;13.462;2024-01-11T04:46:43;11.40;;;3.07;;
72235;SDS011;60146;52.498;13.462;2024-01-11T04:49:08;15.17;;;3.93;;
72235;SDS011;60146;52.498;13.462;2024-01-11T04:51:34;13.07;;;3.67;;
72235;SDS011;60146;52.498;13.462;2024-01-11T04:53:59;10.47;;;2.93;;
72235;SDS011;60146;52.498;13.462;2024-01-11T04:56:25;18.37;;;3.70;;
72235;SDS011;60146;52.498;13.462;2024-01-11T04:58:51;13.77;;;4.10;;
72235;SDS011;60146;52.498;13.462;2024-01-11T05:01:17;10.93;;;3.47;;
72235;SDS011;60146;52.498;13.462;2024-01-11T05:03:43;16.48;;;4.22;;
72235;SDS011;60146;52.498;13.462;2024-01-11T05:06:14;16.30;;;4.27;;
72235;SDS011;60146;52.498;13.462;2024-01-11T05:08:44;18.67;;;4.40;;
72235;SDS011;60146;52.498;13.462;2024-01-11T05:11:17;15.80;;;4.50;;
72235;SDS011;60146;52.498;13.462;2024-01-11T05:13:47;17.63;;;4.87;;
72235;SDS011;60146;52.498;13.462;2024-01-11T05:16:20;14.63;;;4.40;;
72235;SDS011;60146;52.498;13.462;2024-01-11T05:18:46;17.10;;;3.93;;
72235;SDS011;60146;52.498;13.462;2024-01-11T05:21:12;23.77;;;4.33;;
72235;SDS011;60146;52.498;13.462;2024-01-11T05:23:37;16.63;;;4.37;;
72235;SDS011;60146;52.498;13.462;2024-01-11T05:26:02;13.87;;;4.23;;
72235;SDS011;60146;52.498;13.462;2024-01-11T05:28:28;13.20;;;4.13;;
72235;SDS011;60146;52.498;13.462;2024-01-11T05:30:53;15.93;;;4.20;;
72235;SDS011;60146;52.498;13.462;2024-01-11T05:33:20;15.20;;;3.87;;
72235;SDS011;60146;52.498;13.462;2024-01-11T05:35:45;20.13;;;4.40;;
72235;SDS011;60146;52.498;13.462;2024-01-11T05:38:10;13.50;;;3.67;;
72235;SDS011;60146;52.498;13.462;2024-01-11T05:40:36;21.20;;;4.63;;
72235;SDS011;60146;52.498;13.462;2024-01-11T05:43:01;19.20;;;4.27;;
72235;SDS011;60146;52.498;13.462;2024-01-11T05:45:27;17.13;;;4.10;;
72235;SDS011;60146;52.498;13.462;2024-01-11T05:47:52;22.00;;;5.00;;
72235;SDS011;60146;52.498;13.462;2024-01-11T05:50:17;26.30;;;4.23;;
72235;SDS011;60146;52.498;13.462;2024-01-11T05:52:43;20.30;;;4.40;;
72235;SDS011;60146;52.498;13.462;2024-01-11T05:55:08;14.80;;;4.37;;
72235;SDS011;60146;52.498;13.462;2024-01-11T05:57:33;22.63;;;5.37;;
72235;SDS011;60146;52.498;13.462;2024-01-11T05:59:59;22.33;;;4.43;;
72235;SDS011;60146;52.498;13.462;2024-01-11T06:02:24;21.27;;;5.13;;
72235;SDS011;60146;52.498;13.462;2024-01-11T06:04:50;19.57;;;4.80;;
72235;SDS011;60146;52.498;13.462;2024-01-11T06:07:15;22.33;;;5.30;;
72235;SDS011;60146;52.498;13.462;2024-01-11T06:09:40;21.60;;;5.13;;
72235;SDS011;60146;52.498;13.462;2024-01-11T06:12:06;21.53;;;5.63;;
72235;SDS011;60146;52.498;13.462;2024-01-11T06:14:32;22.40;;;5.47;;
72235;SDS011;60146;52.498;13.462;2024-01-11T06:16:57;24.03;;;5.50;;
72235;SDS011;60146;52.498;13.462;2024-01-11T06:19:22;21.93;;;5.13;;
72235;SDS011;60146;52.498;13.462;2024-01-11T06:21:48;22.83;;;6.30;;
72235;SDS011;60146;52.498;13.462;2024-01-11T06:24:13;19.00;;;4.80;;
72235;SDS011;60146;52.498;13.462;2024-01-11T06:26:38;20.47;;;5.63;;
72235;SDS011;60146;52.498;13.462;2024-01-11T06:29:04;21.53;;;5.70;;
72235;SDS011;60146;52.498;13.462;2024-01-11T06:31:29;22.40;;;5.10;;
72235;SDS011;60146;52.498;13.462;2024-01-11T06:33:54;22.27;;;5.23;;
72235;SDS011;60146;52.498;13.462;2024-01-11T06:36:20;23.03;;;5.67;;
72235;SDS011;60146;52.498;13.462;2024-01-11T06:38:46;20.97;;;5.57;;
72235;SDS011;60146;52.498;13.462;2024-01-11T06:41:11;31.97;;;5.70;;
72235;SDS011;60146;52.498;13.462;2024-01-11T06:43:37;24.27;;;6.03;;
72235;SDS011;60146;52.498;13.462;2024-01-11T06:46:03;23.93;;;5.80;;
72235;SDS011;60146;52.498;13.462;2024-01-11T06:48:30;24.17;;;5.50;;
72235;SDS011;60146;52.498;13.462;2024-01-11T06:50:56;22.73;;;5.90;;
72235;SDS011;60146;52.498;13.462;2024-01-11T06:53:21;23.40;;;5.63;;
72235;SDS011;60146;52.498;13.462;2024-01-11T06:55:47;24.17;;;5.53;;
72235;SDS011;60146;52.498;13.462;2024-01-11T06:58:13;25.23;;;6.10;;
72235;SDS011;60146;52.498;13.462;2024-01-11T07:00:38;20.33;;;5.27;;
72235;SDS011;60146;52.498;13.462;2024-01-11T07:03:08;26.85;;;6.35;;
72235;SDS011;60146;52.498;13.462;2024-01-11T07:05:35;28.63;;;6.70;;
72235;SDS011;60146;52.498;13.462;2024-01-11T07:08:00;20.73;;;6.17;;
72235;SDS011;60146;52.498;13.462;2024-01-11T07:10:26;23.00;;;5.00;;
72235;SDS011;60146;52.498;13.462;2024-01-11T07:12:51;25.23;;;5.63;;
72235;SDS011;60146;52.498;13.462;2024-01-11T07:15:16;24.33;;;5.53;;
72235;SDS011;60146;52.498;13.462;2024-01-11T07:17:42;31.13;;;6.93;;
72235;SDS011;60146;52.498;13.462;2024-01-11T07:20:07;24.70;;;6.37;;
72235;SDS011;60146;52.498;13.462;2024-01-11T07:22:34;22.70;;;5.73;;
72235;SDS011;60146;52.498;13.462;2024-01-11T07:24:59;21.80;;;6.10;;
72235;SDS011;60146;52.498;13.462;2024-01-11T07:27:25;21.80;;;6.03;;
72235;SDS011;60146;52.498;13.462;2024-01-11T07:29:50;26.50;;;6.90;;
72235;SDS011;60146;52.498;13.462;2024-01-11T07:32:18;24.17;;;6.00;;
72235;SDS011;60146;52.498;13.462;2024-01-11T07:34:44;21.40;;;5.63;;
72235;SDS011;60146;52.498;13.462;2024-01-11T07:37:12;29.20;;;5.80;;
72235;SDS011;60146;52.498;13.462;2024-01-11T07:39:37;26.10;;;6.70;;
72235;SDS011;60146;52.498;13.462;2024-01-11T07:42:03;25.37;;;6.07;;
72235;SDS011;60146;52.498;13.462;2024-01-11T07:44:28;25.47;;;6.77;;
72235;SDS011;60146;52.498;13.462;2024-01-11T07:46:54;20.97;;;5.43;;
72235;SDS011;60146;52.498;13.462;2024-01-11T07:49:20;21.30;;;5.80;;
72235;SDS011;60146;52.498;13.462;2024-01-11T07:51:45;31.23;;;6.20;;
72235;SDS011;60146;52.498;13.462;2024-01-11T07:54:11;25.23;;;6.53;;
72235;SDS011;60146;52.498;13.462;2024-01-11T07:56:37;23.70;;;5.77;;
72235;SDS011;60146;52.498;13.462;2024-01-11T07:59:02;30.13;;;6.93;;
72235;SDS011;60146;52.498;13.462;2024-01-11T08:01:28;25.53;;;6.83;;
72235;SDS011;60146;52.498;13.462;2024-01-11T08:03:53;29.00;;;6.03;;
72235;SDS011;60146;52.498;13.462;2024-01-11T08:06:18;26.63;;;6.27;;
72235;SDS011;60146;52.498;13.462;2024-01-11T08:08:44;29.60;;;6.83;;
72235;SDS011;60146;52.498;13.462;2024-01-11T08:11:09;28.03;;;6.60;;
72235;SDS011;60146;52.498;13.462;2024-01-11T08:13:37;26.73;;;6.37;;
72235;SDS011;60146;52.498;13.462;2024-01-11T08:16:03;27.53;;;6.20;;
72235;SDS011;60146;52.498;13.462;2024-01-11T08:18:30;28.97;;;5.90;;
72235;SDS011;60146;52.498;13.462;2024-01-11T08:20:55;23.77;;;5.70;;
72235;SDS011;60146;52.498;13.462;2024-01-11T08:23:21;28.33;;;7.40;;
72235;SDS011;60146;52.498;13.462;2024-01-11T08:25:46;27.30;;;6.60;;
72235;SDS011;60146;52.498;13.462;2024-01-11T08:28:12;22.83;;;6.00;;
72235;SDS011;60146;52.498;13.462;2024-01-11T08:30:37;28.13;;;6.47;;
72235;SDS011;60146;52.498;13.462;2024-01-11T08:33:03;34.37;;;6.73;;
72235;SDS011;60146;52.498;13.462;2024-01-11T08:35:29;26.40;;;5.73;;
72235;SDS011;60146;52.498;13.462;2024-01-11T08:37:54;22.17;;;5.67;;
72235;SDS011;60146;52.498;13.462;2024-01-11T08:40:20;24.57;;;5.83;;
72235;SDS011;60146;52.498;13.462;2024-01-11T08:42:45;33.30;;;7.00;;
72235;SDS011;60146;52.498;13.462;2024-01-11T08:45:11;26.37;;;6.40;;
72235;SDS011;60146;52.498;13.462;2024-01-11T08:47:42;23.77;;;6.50;;
72235;SDS011;60146;52.498;13.462;2024-01-11T08:50:11;34.53;;;7.13;;
72235;SDS011;60146;52.498;13.462;2024-01-11T08:52:37;25.87;;;6.37;;
72235;SDS011;60146;52.498;13.462;2024-01-11T08:55:04;32.73;;;7.33;;
72235;SDS011;60146;52.498;13.462;2024-01-11T08:57:30;26.00;;;6.23;;
72235;SDS011;60146;52.498;13.462;2024-01-11T08:59:55;29.23;;;7.03;;
72235;SDS011;60146;52.498;13.462;2024-01-11T09:02:21;27.77;;;7.60;;
72235;SDS011;60146;52.498;13.462;2024-01-11T09:04:46;25.07;;;5.93;;
72235;SDS011;60146;52.498;13.462;2024-01-11T09:07:12;21.83;;;5.50;;
72235;SDS011;60146;52.498;13.462;2024-01-11T09:09:37;30.27;;;6.60;;
72235;SDS011;60146;52.498;13.462;2024-01-11T09:12:03;27.67;;;6.67;;
72235;SDS011;60146;52.498;13.462;2024-01-11T09:14:29;33.43;;;7.73;;
72235;SDS011;60146;52.498;13.462;2024-01-11T09:16:54;33.93;;;7.57;;
72235;SDS011;60146;52.498;13.462;2024-01-11T09:19:20;29.80;;;6.90;;
72235;SDS011;60146;52.498;13.462;2024-01-11T09:21:46;29.50;;;7.67;;
72235;SDS011;60146;52.498;13.462;2024-01-11T09:24:11;31.07;;;7.40;;
72235;SDS011;60146;52.498;13.462;2024-01-11T09:26:36;30.30;;;7.37;;
72235;SDS011;60146;52.498;13.462;2024-01-11T09:29:02;26.87;;;6.40;;
72235;SDS011;60146;52.498;13.462;2024-01-11T09:31:27;32.20;;;8.23;;
72235;SDS011;60146;52.498;13.462;2024-01-11T09:33:52;30.70;;;7.53;;
72235;SDS011;60146;52.498;13.462;2024-01-11T09:36:19;39.13;;;8.53;;
72235;SDS011;60146;52.498;13.462;2024-01-11T09:38:44;27.30;;;7.20;;
72235;SDS011;60146;52.498;13.462;2024-01-11T09:41:12;28.97;;;8.17;;
72235;SDS011;60146;52.498;13.462;2024-01-11T09:43:38;29.23;;;7.63;;
72235;SDS011;60146;52.498;13.462;2024-01-11T09:46:09;33.00;;;7.00;;
72235;SDS011;60146;52.498;13.462;2024-01-11T09:48:38;31.47;;;7.47;;
72235;SDS011;60146;52.498;13.462;2024-01-11T09:51:08;28.33;;;7.53;;
72235;SDS011;60146;52.498;13.462;2024-01-11T09:53:36;27.57;;;7.03;;
72235;SDS011;60146;52.498;13.462;2024-01-11T09:56:04;29.50;;;7.20;;
72235;SDS011;60146;52.498;13.462;2024-01-11T09:58:33;31.20;;;7.20;;
72235;SDS011;60146;52.498;13.462;2024-01-11T10:01:01;37.27;;;7.57;;
72235;SDS011;60146;52.498;13.462;2024-01-11T10:03:27;27.10;;;7.33;;
72235;SDS011;60146;52.498;13.462;2024-01-11T10:05:57;25.50;;;6.63;;
72235;SDS011;60146;52.498;13.462;2024-01-11T10:08:23;30.92;;;7.72;;
72235;SDS011;60146;52.498;13.462;2024-01-11T10:10:49;36.00;;;7.03;;
72235;SDS011;60146;52.498;13.462;2024-01-11T10:13:15;29.10;;;7.33;;
72235;SDS011;60146;52.498;13.462;2024-01-11T10:15:41;30.80;;;7.10;;
72235;SDS011;60146;52.498;13.462;2024-01-11T10:18:07;23.23;;;6.83;;
72235;SDS011;60146;52.498;13.462;2024-01-11T10:20:32;28.40;;;8.13;;
72235;SDS011;60146;52.498;13.462;2024-01-11T10:22:58;35.53;;;7.83;;
72235;SDS011;60146;52.498;13.462;2024-01-11T10:25:24;26.23;;;6.57;;
72235;SDS011;60146;52.498;13.462;2024-01-11T10:27:49;31.17;;;8.27;;
72235;SDS011;60146;52.498;13.462;2024-01-11T10:30:17;29.10;;;8.00;;
72235;SDS011;60146;52.498;13.462;2024-01-11T10:32:46;26.70;;;7.07;;
72235;SDS011;60146;52.498;13.462;2024-01-11T10:35:12;28.50;;;7.77;;
72235;SDS011;60146;52.498;13.462;2024-01-11T10:37:38;24.00;;;6.80;;
72235;SDS011;60146;52.498;13.462;2024-01-11T10:40:05;30.73;;;7.53;;
72235;SDS011;60146;52.498;13.462;2024-01-11T10:42:35;31.93;;;7.93;;
72235;SDS011;60146;52.498;13.462;2024-01-11T10:45:04;29.67;;;8.20;;
72235;SDS011;60146;52.498;13.462;2024-01-11T10:47:36;27.20;;;8.13;;
72235;SDS011;60146;52.498;13.462;2024-01-11T10:50:03;29.03;;;7.97;;
72235;SDS011;60146;52.498;13.462;2024-01-11T10:52:33;30.47;;;7.73;;
72235;SDS011;60146;52.498;13.462;2024-01-11T10:55:07;27.83;;;8.10;;
72235;SDS011;60146;52.498;13.462;2024-01-11T10:57:33;30.17;;;7.60;;
72235;SDS011;60146;52.498;13.462;2024-01-11T10:59:59;30.67;;;8.33;;
72235;SDS011;60146;52.498;13.462;2024-01-11T11:02:28;29.03;;;7.50;;
72235;SDS011;60146;52.498;13.462;2024-01-11T11:04:54;27.00;;;8.30;;
72235;SDS011;60146;52.498;13.462;2024-01-11T11:07:21;32.27;;;8.37;;
72235;SDS011;60146;52.498;13.462;2024-01-11T11:09:49;31.53;;;8.20;;
72235;SDS011;60146;52.498;13.462;2024-01-11T11:12:14;32.13;;;7.77;;
72235;SDS011;60146;52.498;13.462;2024-01-11T11:14:41;39.90;;;8.40;;
72235;SDS011;60146;52.498;13.462;2024-01-11T11:17:09;38.03;;;9.07;;
72235;SDS011;60146;52.498;13.462;2024-01-11T11:19:34;33.63;;;8.83;;
72235;SDS011;60146;52.498;13.462;2024-01-11T11:22:00;29.83;;;7.40;;
72235;SDS011;60146;52.498;13.462;2024-01-11T11:24:29;33.17;;;8.23;;
72235;SDS011;60146;52.498;13.462;2024-01-11T11:26:55;31.47;;;7.83;;
72235;SDS011;60146;52.498;13.462;2024-01-11T11:29:22;27.07;;;7.30;;
72235;SDS011;60146;52.498;13.462;2024-01-11T11:31:47;27.50;;;7.90;;
72235;SDS011;60146;52.498;13.462;2024-01-11T11:36:45;25.63;;;6.80;;
72235;SDS011;60146;52.498;13.462;2024-01-11T11:39:11;28.30;;;7.13;;
72235;SDS011;60146;52.498;13.462;2024-01-11T11:41:38;26.67;;;7.47;;
72235;SDS011;60146;52.498;13.462;2024-01-11T11:44:04;33.40;;;8.40;;
72235;SDS011;60146;52.498;13.462;2024-01-11T11:46:31;26.67;;;7.70;;
72235;SDS011;60146;52.498;13.462;2024-01-11T11:48:57;26.73;;;6.70;;
72235;SDS011;60146;52.498;13.462;2024-01-11T11:51:23;21.57;;;6.67;;
72235;SDS011;60146;52.498;13.462;2024-01-11T11:53:49;19.73;;;6.93;;
72235;SDS011;60146;52.498;13.462;2024-01-11T11:56:22;25.20;;;7.40;;
72235;SDS011;60146;52.498;13.462;2024-01-11T11:58:48;22.33;;;7.10;;
72235;SDS011;60146;52.498;13.462;2024-01-11T12:01:19;23.67;;;6.63;;
72235;SDS011;60146;52.498;13.462;2024-01-11T12:03:45;24.17;;;6.67;;
72235;SDS011;60146;52.498;13.462;2024-01-11T12:06:18;24.07;;;6.43;;
72235;SDS011;60146;52.498;13.462;2024-01-11T12:08:44;21.42;;;7.32;;
72235;SDS011;60146;52.498;13.462;2024-01-11T12:11:28;22.50;;;7.00;;
72235;SDS011;60146;52.498;13.462;2024-01-11T12:13:54;22.53;;;6.93;;
72235;SDS011;60146;52.498;13.462;2024-01-11T12:16:22;22.30;;;7.20;;
72235;SDS011;60146;52.498;13.462;2024-01-11T12:18:48;24.27;;;6.77;;
72235;SDS011;60146;52.498;13.462;2024-01-11T12:21:14;21.60;;;5.93;;
72235;SDS011;60146;52.498;13.462;2024-01-11T12:23:40;20.60;;;6.73;;
72235;SDS011;60146;52.498;13.462;2024-01-11T12:26:07;25.87;;;6.87;;
72235;SDS011;60146;52.498;13.462;2024-01-11T12:28:38;23.93;;;6.93;;
72235;SDS011;60146;52.498;13.462;2024-01-11T12:31:04;24.53;;;6.63;;
72235;SDS011;60146;52.498;13.462;2024-01-11T12:33:29;21.87;;;6.70;;
72235;SDS011;60146;52.498;13.462;2024-01-11T12:35:55;24.27;;;7.40;;
72235;SDS011;60146;52.498;13.462;2024-01-11T12:38:20;23.20;;;6.50;;
72235;SDS011;60146;52.498;13.462;2024-01-11T12:40:46;23.33;;;7.37;;
72235;SDS011;60146;52.498;13.462;2024-01-11T12:43:12;22.27;;;7.50;;
72235;SDS011;60146;52.498;13.462;2024-01-11T12:45:39;23.90;;;6.77;;
72235;SDS011;60146;52.498;13.462;2024-01-11T12:48:06;22.53;;;6.63;;
72235;SDS011;60146;52.498;13.462;2024-01-11T12:50:33;22.80;;;6.60;;
72235;SDS011;60146;52.498;13.462;2024-01-11T12:53:11;24.17;;;6.63;;
72235;SDS011;60146;52.498;13.462;2024-01-11T12:55:46;21.17;;;6.47;;
72235;SDS011;60146;52.498;13.462;2024-01-11T12:58:26;22.77;;;6.63;;
72235;SDS011;60146;52.498;13.462;2024-01-11T13:00:52;22.30;;;5.97;;
72235;SDS011;60146;52.498;13.462;2024-01-11T13:03:18;22.67;;;6.70;;
72235;SDS011;60146;52.498;13.462;2024-01-11T13:05:45;21.47;;;7.23;;
72235;SDS011;60146;52.498;13.462;2024-01-11T13:08:11;22.70;;;6.80;;
72235;SDS011;60146;52.498;13.462;2024-01-11T13:10:36;22.57;;;7.60;;
72235;SDS011;60146;52.498;13.462;2024-01-11T13:13:06;22.60;;;6.30;;
72235;SDS011;60146;52.498;13.462;2024-01-11T13:15:34;25.50;;;6.63;;
72235;SDS011;60146;52.498;13.462;2024-01-11T13:18:01;17.57;;;6.30;;
72235;SDS011;60146;52.498;13.462;2024-01-11T13:20:27;22.70;;;7.23;;
72235;SDS011;60146;52.498;13.462;2024-01-11T13:25:41;22.53;;;6.43;;
72235;SDS011;60146;52.498;13.462;2024-01-11T13:28:08;20.67;;;6.67;;
72235;SDS011;60146;52.498;13.462;2024-01-11T13:30:39;22.40;;;6.50;;
72235;SDS011;60146;52.498;13.462;2024-01-11T13:33:05;22.93;;;6.83;;
72235;SDS011;60146;52.498;13.462;2024-01-11T13:35:33;25.60;;;6.87;;
72235;SDS011;60146;52.498;13.462;2024-01-11T13:38:00;25.17;;;6.80;;
72235;SDS011;60146;52.498;13.462;2024-01-11T13:40:25;21.47;;;6.03;;
72235;SDS011;60146;52.498;13.462;2024-01-11T13:42:53;22.70;;;6.40;;
72235;SDS011;60146;52.498;13.462;2024-01-11T13:45:19;17.27;;;6.00;;
72235;SDS011;60146;52.498;13.462;2024-01-11T13:47:44;22.67;;;6.57;;
72235;SDS011;60146;52.498;13.462;2024-01-11T13:50:10;17.53;;;5.50;;
72235;SDS011;60146;52.498;13.462;2024-01-11T13:52:35;23.67;;;6.00;;
72235;SDS011;60146;52.498;13.462;2024-01-11T13:55:01;21.40;;;6.00;;
72235;SDS011;60146;52.498;13.462;2024-01-11T13:57:26;19.63;;;5.53;;
72235;SDS011;60146;52.498;13.462;2024-01-11T13:59:51;20.90;;;6.43;;
72235;SDS011;60146;52.498;13.462;2024-01-11T14:02:17;19.80;;;5.37;;
72235;SDS011;60146;52.498;13.462;2024-01-11T14:04:42;21.80;;;6.10;;
72235;SDS011;60146;52.498;13.462;2024-01-11T14:07:08;21.47;;;6.43;;
72235;SDS011;60146;52.498;13.462;2024-01-11T14:09:33;17.27;;;5.80;;
72235;SDS011;60146;52.498;13.462;2024-01-11T14:11:58;15.17;;;5.07;;
72235;SDS011;60146;52.498;13.462;2024-01-11T14:14:24;21.37;;;5.57;;
72235;SDS011;60146;52.498;13.462;2024-01-11T14:16:49;18.03;;;5.33;;
72235;SDS011;60146;52.498;13.462;2024-01-11T14:19:16;17.50;;;4.77;;
72235;SDS011;60146;52.498;13.462;2024-01-11T14:21:42;15.83;;;6.00;;